LDZD/ZAD METAR and TAF weather

Enter ICAO airport designator
Station Type Date Time Source
LDZD METAR 2019/09/20 20:00 UTC NOAA

LDZD 202000Z 08008KT 030V140 CAVOK 16/02 Q1023 NOSIG


Station Type Date Time Source
LDZD Decoded METAR 2019/09/20 20:00 UTC NOAA

Zadar / Zemunik, Croatia (LDZD) 44-06N 015-21E
Sep 20, 2019 - 04:00 PM EDT / 2019.09.20 2000 UTC
Wind: from the E (080 degrees) at 9 MPH (8 KT) (direction variable):0
Visibility: greater than 7 mile(s):0
Temperature: 60 F (16 C)
Dew Point: 35 F (2 C)
Relative Humidity: 38%
Pressure (altimeter): 30.21 in. Hg (1023 hPa)
ob: LDZD 202000Z 08008KT 030V140 CAVOK 16/02 Q1023 NOSIG
cycle: 20

Station Type Date Time Source
LDZD TAF 2019/09/20 18:27 UTC NOAA

TAF LDZD 201725Z 2018/2118 07006KT CAVOK TX24/2112Z TN10/2105Z PROB40
TEMPO 2112/2116 30008KT

Example: see airport list